Time;durP1;ratioP1;P1;durP2;ratioP2;P2;SDS_P1;SDS_P2;PMS_P1;PMS_P2;Temp;Humidity;BMP_temperature;BMP_pressure;BME280_temperature;BME280_humidity;BME280_pressure;Samples;Min_cycle;Max_cycle;Signal;HPM_P1;HPM_P2
2022/08/29 00:00:17;;;;;;;12.57;4.00;;;;;;;20.14;49.01;101489.72;5070171;27;96833;-67
2022/08/29 00:02:44;;;;;;;8.15;3.83;;;;;;;20.24;48.84;101496.19;5062413;27;96784;-68
2022/08/29 00:05:11;;;;;;;8.45;3.15;;;;;;;20.20;48.98;101494.69;5064830;27;99191;-67
2022/08/29 00:07:37;;;;;;;11.65;3.90;;;;;;;20.12;49.49;101490.75;5067551;27;99024;-67
2022/08/29 00:10:05;;;;;;;11.77;3.45;;;;;;;20.23;49.22;101489.09;5065720;27;97818;-67
2022/08/29 00:12:32;;;;;;;11.32;3.25;;;;;;;20.20;49.32;101488.44;5069270;27;96906;-67
2022/08/29 00:15:00;;;;;;;12.50;3.10;;;;;;;20.23;49.57;101489.09;5069570;27;98342;-67
2022/08/29 00:17:33;;;;;;;11.95;3.38;;;;;;;20.23;49.24;101490.91;5065385;27;98939;-66
2022/08/29 00:19:59;;;;;;;14.65;4.20;;;;;;;19.98;50.24;101494.31;5071498;27;97006;-66
2022/08/29 00:22:26;;;;;;;7.78;3.25;;;;;;;19.95;50.36;101489.16;5067092;27;96931;-66
2022/08/29 00:24:55;;;;;;;11.88;3.75;;;;;;;19.59;51.45;101478.00;5072490;27;99055;-66
2022/08/29 00:27:24;;;;;;;15.23;6.57;;;;;;;19.73;51.36;101488.75;5074423;27;98773;-66
2022/08/29 00:29:50;;;;;;;10.18;4.22;;;;;;;20.06;50.72;101492.00;5071914;27;97436;-68
2022/08/29 00:32:18;;;;;;;9.38;3.42;;;;;;;19.40;52.56;101483.59;5069838;27;99445;-66
2022/08/29 00:34:46;;;;;;;10.82;3.67;;;;;;;19.68;51.93;101488.19;5073317;27;101054;-66
2022/08/29 00:37:12;;;;;;;11.90;3.13;;;;;;;19.78;51.38;101492.00;5071680;27;98850;-66
2022/08/29 00:39:38;;;;;;;13.45;3.70;;;;;;;19.71;51.57;101488.84;5074199;27;96870;-65
2022/08/29 00:42:07;;;;;;;10.65;3.28;;;;;;;19.55;52.28;101495.25;5067588;27;96795;-66
2022/08/29 00:44:36;;;;;;;9.15;3.53;;;;;;;19.75;51.79;101486.84;5071394;27;99520;-66
2022/08/29 00:47:06;;;;;;;12.00;3.72;;;;;;;19.81;52.02;101491.81;5068055;27;99498;-66
2022/08/29 00:49:39;;;;;;;11.70;3.47;;;;;;;19.97;51.35;101480.97;5067947;27;97979;-66
2022/08/29 00:52:13;;;;;;;9.23;3.17;;;;;;;19.92;51.60;101485.78;5071498;27;96985;-65
2022/08/29 00:54:43;;;;;;;13.75;3.47;;;;;;;20.05;51.23;101490.28;5065630;27;98982;-65
2022/08/29 00:57:12;;;;;;;11.85;4.10;;;;;;;19.76;52.05;101484.03;5063887;27;99245;-66
2022/08/29 00:59:40;;;;;;;11.57;3.58;;;;;;;19.87;51.75;101486.06;5069590;27;97553;-65
2022/08/29 01:02:09;;;;;;;13.05;4.00;;;;;;;19.85;51.76;101488.84;5071683;27;96834;-66
2022/08/29 01:04:40;;;;;;;8.05;3.30;;;;;;;19.96;51.46;101489.97;5066143;27;98872;-65
2022/08/29 01:07:19;;;;;;;11.82;3.00;;;;;;;19.50;52.23;101491.00;5068683;27;98973;-65
2022/08/29 01:09:46;;;;;;;15.50;3.55;;;;;;;19.53;52.70;101487.28;5073033;27;96772;-65
2022/08/29 01:12:15;;;;;;;10.63;3.33;;;;;;;19.71;52.27;101491.50;5071885;27;96931;-67
2022/08/29 01:14:48;;;;;;;12.30;2.92;;;;;;;19.74;52.03;101491.34;5074231;27;97807;-66
2022/08/29 01:17:18;;;;;;;10.77;3.92;;;;;;;20.04;51.39;101499.28;5073283;27;98865;-66
2022/08/29 01:19:52;;;;;;;7.82;3.35;;;;;;;20.04;51.46;101499.28;5077330;27;97267;-67
2022/08/29 01:22:39;;;;;;;11.50;3.25;;;;;;;19.78;51.78;101500.91;5070941;27;96878;-67
2022/08/29 01:25:11;;;;;;;10.35;3.47;;;;;;;19.54;52.66;101505.09;5071854;27;99303;-66
2022/08/29 01:27:41;;;;;;;13.55;3.67;;;;;;;19.71;52.20;101510.28;5071564;27;101923;-67
2022/08/29 01:30:09;;;;;;;14.30;3.30;;;;;;;19.80;52.11;101515.09;5071547;27;97941;-65
2022/08/29 01:32:36;;;;;;;9.48;3.20;;;;;;;19.65;52.45;101517.84;5065510;27;97267;-66
2022/08/29 01:35:08;;;;;;;9.38;3.20;;;;;;;19.71;52.14;101528.19;5069475;27;99841;-66
2022/08/29 01:37:37;;;;;;;14.32;3.75;;;;;;;19.73;52.25;101519.09;5070412;27;98906;-66
2022/08/29 01:40:05;;;;;;;11.43;3.50;;;;;;;19.65;52.22;101520.53;5072912;27;98038;-68
2022/08/29 01:42:33;;;;;;;9.70;3.33;;;;;;;19.82;51.46;101518.53;5070173;27;96836;-67
2022/08/29 01:45:00;;;;;;;10.40;2.75;;;;;;;19.71;52.27;101517.47;5068936;27;98966;-67
2022/08/29 01:47:33;;;;;;;9.00;3.33;;;;;;;19.48;52.34;101525.09;5070313;27;99327;-66
2022/08/29 01:50:11;;;;;;;9.88;3.25;;;;;;;19.54;52.40;101525.69;5070708;27;99069;-67
2022/08/29 01:52:38;;;;;;;12.10;3.78;;;;;;;19.42;52.46;101520.09;5072404;27;98479;-66
2022/08/29 01:55:07;;;;;;;12.10;3.50;;;;;;;19.62;52.18;101529.63;5069922;27;99394;-66
2022/08/29 01:57:36;;;;;;;11.75;3.28;;;;;;;19.53;52.32;101532.00;5072512;27;101770;-66
2022/08/29 02:00:05;;;;;;;9.77;3.20;;;;;;;19.61;52.35;101532.41;5070363;27;98825;-66
2022/08/29 02:02:32;;;;;;;10.57;3.00;;;;;;;19.60;52.65;101534.22;5070312;27;98725;-66
2022/08/29 02:04:59;;;;;;;17.13;4.07;;;;;;;19.61;52.37;101529.72;5069364;27;100776;-66
2022/08/29 02:07:26;;;;;;;8.30;3.50;;;;;;;19.56;52.33;101531.81;5070490;27;98855;-66
2022/08/29 02:09:53;;;;;;;13.32;3.67;;;;;;;19.40;53.11;101526.47;5072367;27;96923;-66
2022/08/29 02:12:20;;;;;;;8.88;3.30;;;;;;;19.46;52.85;101531.50;5072401;27;96856;-66
2022/08/29 02:14:49;;;;;;;10.23;3.45;;;;;;;19.48;52.69;101530.47;5071401;27;99218;-66
2022/08/29 02:17:16;;;;;;;8.50;3.45;;;;;;;19.41;52.47;101533.56;5070129;27;98854;-66
2022/08/29 02:19:42;;;;;;;11.00;3.63;;;;;;;19.52;52.24;101527.59;5077890;27;97121;-66
2022/08/29 02:22:12;;;;;;;13.20;3.55;;;;;;;19.28;53.02;101520.03;5072310;27;96915;-66
2022/08/29 02:24:39;;;;;;;9.80;3.40;;;;;;;19.46;52.42;101524.31;5065550;27;98890;-66
2022/08/29 02:27:05;;;;;;;10.95;3.55;;;;;;;19.68;52.02;101515.84;5068340;27;99329;-66
2022/08/29 02:29:32;;;;;;;9.30;3.30;;;;;;;19.47;52.76;101517.16;5069092;27;98637;-66
2022/08/29 02:32:00;;;;;;;10.40;3.38;;;;;;;19.56;52.41;101524.63;5069219;27;96906;-66
2022/08/29 02:34:31;;;;;;;8.80;3.45;;;;;;;19.39;52.84;101522.06;5069037;27;100171;-66
2022/08/29 02:37:00;;;;;;;11.18;3.60;;;;;;;19.36;52.81;101520.41;5071208;27;98915;-66
2022/08/29 02:39:26;;;;;;;11.43;3.25;;;;;;;19.02;53.69;101518.91;5067709;27;97729;-66
2022/08/29 02:41:53;;;;;;;12.82;3.72;;;;;;;19.08;53.62;101523.91;5068583;27;97065;-66
2022/08/29 02:44:20;;;;;;;11.10;3.50;;;;;;;19.13;53.67;101536.16;5073372;27;99185;-66
2022/08/29 02:46:46;;;;;;;10.18;3.33;;;;;;;19.05;53.97;101524.06;5069662;27;98872;-66
2022/08/29 02:49:14;;;;;;;7.35;3.35;;;;;;;19.21;53.63;101534.75;5072103;27;96782;-65
2022/08/29 02:51:40;;;;;;;9.63;3.40;;;;;;;19.25;53.32;101528.25;5071507;27;97809;-66
2022/08/29 02:54:07;;;;;;;17.73;4.43;;;;;;;19.33;53.14;101539.38;5070081;27;99523;-66
2022/08/29 02:56:33;;;;;;;10.32;3.33;;;;;;;19.16;53.43;101534.16;5069489;27;99187;-66
2022/08/29 02:59:01;;;;;;;12.75;3.92;;;;;;;19.19;53.29;101536.66;5065127;27;98152;-66
2022/08/29 03:01:29;;;;;;;9.63;3.25;;;;;;;19.08;53.56;101533.75;5070804;27;96844;-66
2022/08/29 03:03:56;;;;;;;9.68;3.40;;;;;;;19.14;53.54;101530.72;5071486;27;99111;-65
2022/08/29 03:06:24;;;;;;;12.68;3.67;;;;;;;19.28;53.14;101522.72;5065131;27;98881;-66
2022/08/29 03:08:50;;;;;;;13.23;3.70;;;;;;;18.95;53.85;101532.72;5070816;27;96851;-65
2022/08/29 03:11:20;;;;;;;11.15;3.22;;;;;;;19.17;53.30;101521.59;5065417;27;97120;-65
2022/08/29 03:13:46;;;;;;;11.60;3.42;;;;;;;19.30;52.78;101520.78;5066412;27;98893;-65
2022/08/29 03:16:13;;;;;;;14.50;3.70;;;;;;;19.38;52.88;101523.88;5066275;27;98146;-66
2022/08/29 03:18:44;;;;;;;8.15;3.38;;;;;;;18.98;53.71;101524.50;5071463;27;96805;-65
2022/08/29 03:21:15;;;;;;;10.18;3.47;;;;;;;19.03;53.53;101523.28;5065165;27;96935;-65
2022/08/29 03:23:43;;;;;;;10.60;3.38;;;;;;;19.21;52.90;101528.53;5063288;27;99180;-67
2022/08/29 03:26:10;;;;;;;9.07;3.55;;;;;;;19.10;53.35;101521.97;5066356;27;99359;-66
2022/08/29 03:28:36;;;;;;;7.57;3.25;;;;;;;19.26;53.37;101519.25;5072299;27;98386;-66
2022/08/29 03:31:04;;;;;;;7.28;3.05;;;;;;;19.10;53.04;101527.31;5072873;27;97848;-66
2022/08/29 03:33:30;;;;;;;14.88;4.28;;;;;;;18.88;53.78;101529.53;5069381;27;98845;-66
2022/08/29 03:35:59;;;;;;;13.82;3.65;;;;;;;18.85;54.00;101536.88;5066088;27;98386;-67
2022/08/29 03:38:26;;;;;;;14.23;3.70;;;;;;;18.73;53.89;101524.19;5068379;27;97923;-67
2022/08/29 03:40:54;;;;;;;9.43;3.53;;;;;;;18.89;53.50;101525.06;5068337;27;96903;-65
2022/08/29 03:43:20;;;;;;;12.27;3.35;;;;;;;18.73;53.80;101526.88;5071083;27;98928;-66
2022/08/29 03:45:47;;;;;;;9.43;4.05;;;;;;;18.94;53.63;101518.47;5066535;27;98860;-66
2022/08/29 03:48:13;;;;;;;9.88;3.40;;;;;;;18.71;53.98;101519.78;5071052;27;98914;-66
2022/08/29 03:50:40;;;;;;;13.32;3.88;;;;;;;18.80;53.73;101513.03;5069853;27;96909;-66
2022/08/29 03:53:06;;;;;;;9.30;2.92;;;;;;;18.88;53.41;101516.16;5062252;27;102061;-66
2022/08/29 03:55:35;;;;;;;16.00;4.70;;;;;;;18.57;54.11;101519.72;5072021;27;98760;-66
2022/08/29 03:58:06;;;;;;;11.40;3.88;;;;;;;18.55;54.26;101515.38;5072253;27;96886;-66
2022/08/29 04:00:32;;;;;;;9.70;3.72;;;;;;;18.65;54.32;101520.13;5072182;27;96855;-66
2022/08/29 04:02:59;;;;;;;14.45;4.30;;;;;;;18.67;54.22;101531.63;5068919;27;101484;-66
2022/08/29 04:05:28;;;;;;;13.45;4.72;;;;;;;18.58;54.54;101518.75;5066715;27;98196;-67
2022/08/29 04:07:58;;;;;;;8.90;3.85;;;;;;;18.61;54.31;101523.94;5069779;27;96872;-66
2022/08/29 04:10:27;;;;;;;14.00;4.57;;;;;;;18.59;54.60;101525.84;5066458;27;97862;-66
2022/08/29 04:12:55;;;;;;;11.75;3.72;;;;;;;18.56;54.71;101520.69;5069881;27;98971;-67
2022/08/29 04:15:25;;;;;;;12.45;3.83;;;;;;;18.64;54.33;101526.44;5067183;27;98894;-66
2022/08/29 04:17:56;;;;;;;11.85;4.68;;;;;;;18.82;54.36;101527.22;5071954;27;97250;-66
2022/08/29 04:20:23;;;;;;;10.85;3.85;;;;;;;18.63;54.76;101515.84;5071606;27;98493;-66
2022/08/29 04:22:54;;;;;;;14.32;4.88;;;;;;;18.57;55.00;101527.75;5072369;27;98747;-66
2022/08/29 04:25:23;;;;;;;8.90;4.25;;;;;;;18.56;54.92;101522.50;5067009;27;100009;-66
2022/08/29 04:27:52;;;;;;;9.15;3.85;;;;;;;18.71;55.02;101534.97;5071976;27;96810;-67
2022/08/29 04:30:24;;;;;;;14.40;4.38;;;;;;;18.85;54.68;101528.84;5071610;27;97176;-67
2022/08/29 04:32:52;;;;;;;19.08;4.97;;;;;;;18.93;54.49;101538.16;5070711;27;99241;-66
2022/08/29 04:35:19;;;;;;;14.05;4.65;;;;;;;19.07;53.96;101537.38;5067077;27;98865;-67
2022/08/29 04:37:45;;;;;;;15.55;4.53;;;;;;;19.19;53.66;101536.66;5073950;27;96783;-66
2022/08/29 04:40:14;;;;;;;9.98;3.92;;;;;;;19.30;53.79;101534.19;5070058;27;96945;-67
2022/08/29 04:42:41;;;;;;;15.32;4.63;;;;;;;19.30;53.71;101533.31;5063687;27;99231;-67
2022/08/29 04:45:11;;;;;;;9.48;4.10;;;;;;;19.17;53.71;101543.91;5067900;27;98838;-67
2022/08/29 04:47:37;;;;;;;11.38;3.97;;;;;;;19.31;53.51;101540.41;5069846;27;98053;-66
2022/08/29 04:50:06;;;;;;;16.98;4.47;;;;;;;19.22;54.24;101541.84;5067996;27;98908;-66
2022/08/29 04:52:33;;;;;;;19.48;5.15;;;;;;;19.25;54.11;101541.66;5074420;27;99530;-66
2022/08/29 04:55:02;;;;;;;21.52;5.40;;;;;;;19.05;54.62;101542.81;5071349;27;100800;-65
2022/08/29 04:57:29;;;;;;;19.02;4.30;;;;;;;19.08;54.87;101539.09;5075315;27;97381;-65
2022/08/29 04:59:58;;;;;;;11.60;4.40;;;;;;;19.08;55.10;101544.47;5074473;27;96818;-66
2022/08/29 05:02:26;;;;;;;16.60;5.10;;;;;;;19.00;55.54;101544.03;5073118;27;98098;-66
2022/08/29 05:04:53;;;;;;;15.63;5.30;;;;;;;17.97;60.73;101536.44;5068867;27;99465;-66
2022/08/29 05:07:22;;;;;;;18.27;5.22;;;;;;;17.75;61.05;101542.94;5078653;27;96803;-66
2022/08/29 05:09:49;;;;;;;17.02;5.28;;;;;;;18.07;60.23;101543.00;5072399;27;96851;-66
2022/08/29 05:12:16;;;;;;;19.88;5.60;;;;;;;18.49;59.12;101554.06;5066975;27;99400;-66
2022/08/29 05:14:42;;;;;;;15.45;6.15;;;;;;;18.28;59.83;101555.22;5071355;27;98671;-67
2022/08/29 05:17:08;;;;;;;12.77;5.82;;;;;;;18.38;59.74;101550.25;5067325;27;96890;-67
2022/08/29 05:19:37;;;;;;;17.42;5.75;;;;;;;18.43;59.84;101551.72;5069774;27;96964;-67
2022/08/29 05:22:03;;;;;;;24.05;7.75;;;;;;;18.32;60.34;101559.44;5071525;27;99304;-66
2022/08/29 05:24:36;;;;;;;21.63;7.07;;;;;;;18.12;61.16;101559.66;5070524;27;98860;-66
2022/08/29 05:27:10;;;;;;;17.15;6.57;;;;;;;18.41;60.60;101558.09;5068228;27;98384;-66
2022/08/29 05:29:39;;;;;;;19.50;6.40;;;;;;;18.36;61.15;101560.16;5067179;27;96853;-67
2022/08/29 05:32:07;;;;;;;21.52;6.00;;;;;;;18.70;60.35;101566.28;5068072;27;98892;-67
2022/08/29 05:34:33;;;;;;;26.92;6.60;;;;;;;19.27;58.52;101560.31;5072255;27;100090;-67
2022/08/29 05:37:04;;;;;;;22.17;6.63;;;;;;;19.49;57.62;101566.19;5066837;27;96869;-67
2022/08/29 05:39:33;;;;;;;14.70;5.88;;;;;;;19.61;57.33;101564.56;5070224;27;97700;-66
2022/08/29 05:42:00;;;;;;;22.55;6.38;;;;;;;19.69;57.02;101567.66;5066470;27;98877;-65
2022/08/29 05:44:27;;;;;;;18.65;5.93;;;;;;;19.95;56.46;101563.38;5070193;27;98858;-67
2022/08/29 05:46:54;;;;;;;16.08;6.72;;;;;;;20.00;56.51;101567.50;5070634;27;96864;-66
2022/08/29 05:49:20;;;;;;;19.20;6.82;;;;;;;20.22;55.87;101562.50;5072573;27;98345;-67
2022/08/29 05:51:47;;;;;;;30.17;6.57;;;;;;;20.13;55.93;101560.41;5072388;27;98923;-67
2022/08/29 05:54:13;;;;;;;22.90;5.88;;;;;;;19.81;56.89;101569.59;5065958;27;101300;-67
2022/08/29 05:56:41;;;;;;;17.20;5.43;;;;;;;20.12;55.91;101561.38;5066487;27;96831;-67
2022/08/29 05:59:10;;;;;;;14.73;5.38;;;;;;;20.35;55.60;101567.16;5072393;27;96789;-67
2022/08/29 06:01:36;;;;;;;15.60;6.30;;;;;;;20.49;55.00;101569.81;5070701;27;101563;-67
2022/08/29 06:04:03;;;;;;;19.95;5.28;;;;;;;20.76;54.34;101569.84;5068414;27;98836;-67
2022/08/29 06:06:33;;;;;;;12.70;4.78;;;;;;;20.87;53.68;101568.19;5066725;27;97418;-67
2022/08/29 06:08:59;;;;;;;17.98;5.57;;;;;;;20.99;52.84;101567.41;5070955;27;98253;-66
2022/08/29 06:11:29;;;;;;;12.63;4.57;;;;;;;20.75;53.82;101566.31;5071517;27;97876;-66
2022/08/29 06:13:58;;;;;;;13.35;4.78;;;;;;;20.66;54.11;101575.84;5069891;27;97614;-67
2022/08/29 06:16:27;;;;;;;13.90;4.75;;;;;;;20.61;54.22;101577.09;5067497;27;97043;-67
2022/08/29 06:18:53;;;;;;;17.25;5.57;;;;;;;20.02;55.75;101578.97;5067454;27;97213;-69
2022/08/29 06:21:20;;;;;;;18.25;6.35;;;;;;;20.05;55.99;101569.91;5066858;27;98844;-67
2022/08/29 06:23:47;;;;;;;18.38;5.35;;;;;;;20.37;55.36;101575.97;5065027;27;98787;-66
2022/08/29 06:26:15;;;;;;;21.52;4.95;;;;;;;20.32;55.22;101573.53;5067167;27;96908;-65
2022/08/29 06:28:45;;;;;;;18.27;5.53;;;;;;;20.42;55.17;101579.22;5066722;27;98713;-66
2022/08/29 06:31:34;;;;;;;19.25;5.55;;;;;;;20.40;54.96;101582.00;5068016;27;99624;-66
2022/08/29 06:34:04;;;;;;;19.77;6.25;;;;;;;20.14;55.74;101588.97;5063855;27;99637;-65
2022/08/29 06:36:36;;;;;;;18.63;5.40;;;;;;;20.33;55.38;101590.53;5062713;27;98952;-64
2022/08/29 06:39:07;;;;;;;17.30;5.57;;;;;;;20.15;56.27;101596.03;5066449;27;97273;-65
2022/08/29 06:41:34;;;;;;;22.25;6.25;;;;;;;19.89;57.03;101594.97;5064217;27;98849;-65
2022/08/29 06:44:01;;;;;;;24.88;6.35;;;;;;;20.19;56.24;101594.91;5072165;27;99019;-66
2022/08/29 06:46:31;;;;;;;21.38;6.30;;;;;;;20.32;56.14;101595.00;5069730;27;96921;-65
2022/08/29 06:49:01;;;;;;;26.92;6.88;;;;;;;20.43;55.61;101594.34;5067045;27;96846;-65
2022/08/29 06:51:31;;;;;;;17.17;5.30;;;;;;;20.61;54.97;101598.59;5070392;27;99983;-66
2022/08/29 06:53:58;;;;;;;15.68;5.15;;;;;;;20.63;54.74;101599.31;5067746;27;99435;-66
2022/08/29 06:56:24;;;;;;;19.60;4.97;;;;;;;20.82;54.46;101594.50;5069113;27;97868;-65
2022/08/29 06:58:51;;;;;;;14.82;5.70;;;;;;;20.79;54.58;101600.09;5069060;27;96885;-65
2022/08/29 07:01:19;;;;;;;15.63;5.43;;;;;;;21.06;54.03;101605.47;5063699;27;99102;-66
2022/08/29 07:03:47;;;;;;;16.13;5.57;;;;;;;20.99;54.19;101599.66;5060622;27;98657;-65
2022/08/29 07:06:14;;;;;;;12.90;4.88;;;;;;;21.28;53.51;101610.31;5069106;27;97837;-65
2022/08/29 07:08:40;;;;;;;19.65;5.30;;;;;;;21.09;53.94;101607.94;5067432;27;99523;-66
2022/08/29 07:11:06;;;;;;;16.80;6.28;;;;;;;21.40;53.17;101607.66;5070094;27;99000;-66
2022/08/29 07:13:36;;;;;;;11.23;5.20;;;;;;;21.58;53.06;101616.34;5066060;27;99052;-66
2022/08/29 07:16:03;;;;;;;13.18;4.53;;;;;;;21.49;52.88;101622.31;5067181;27;97024;-66
2022/08/29 07:18:30;;;;;;;16.65;5.28;;;;;;;21.41;53.16;101624.66;5069025;27;97043;-65
2022/08/29 07:20:58;;;;;;;15.70;5.68;;;;;;;21.48;52.98;101625.97;5068719;27;98864;-66
2022/08/29 07:23:25;;;;;;;11.43;5.35;;;;;;;21.44;52.97;101622.66;5064277;27;101230;-66
2022/08/29 07:25:54;;;;;;;16.98;5.47;;;;;;;21.48;53.04;101628.66;5068815;27;96745;-66
2022/08/29 07:28:20;;;;;;;14.55;5.03;;;;;;;21.46;53.01;101622.53;5071176;27;98388;-67
2022/08/29 07:30:46;;;;;;;14.13;5.10;;;;;;;21.16;53.87;101620.06;5067157;27;97910;-67
2022/08/29 07:33:13;;;;;;;17.45;5.55;;;;;;;21.31;53.71;101627.13;5073147;27;99972;-67
2022/08/29 07:35:39;;;;;;;18.83;5.50;;;;;;;21.46;53.17;101625.25;5067825;27;98930;-67
2022/08/29 07:38:08;;;;;;;15.23;5.05;;;;;;;21.46;53.09;101631.44;5068451;27;98200;-65
2022/08/29 07:40:37;;;;;;;19.90;5.70;;;;;;;21.62;52.74;101627.75;5070593;27;99022;-65
2022/08/29 07:43:07;;;;;;;15.57;5.60;;;;;;;21.53;52.94;101631.91;5068665;27;101319;-64
2022/08/29 07:45:55;;;;;;;14.38;5.10;;;;;;;21.38;53.51;101630.25;5067419;27;97621;-65
2022/08/29 07:48:25;;;;;;;12.45;5.45;;;;;;;21.26;53.87;101626.56;5069655;27;96835;-65
2022/08/29 07:50:54;;;;;;;11.65;4.88;;;;;;;21.55;53.32;101627.28;5070591;27;99265;-65
2022/08/29 07:53:33;;;;;;;9.98;5.05;;;;;;;21.62;52.83;101638.50;5075174;27;97713;-65
2022/08/29 07:56:04;;;;;;;11.40;4.45;;;;;;;21.74;52.78;101638.53;5067110;27;96806;-66
2022/08/29 07:58:32;;;;;;;11.88;5.38;;;;;;;22.04;51.71;101638.28;5074508;27;97315;-67
2022/08/29 08:01:02;;;;;;;13.70;5.05;;;;;;;21.94;51.99;101645.22;5066307;27;98843;-66
2022/08/29 08:03:31;;;;;;;15.52;4.63;;;;;;;21.73;52.21;101652.06;5053653;27;99371;-68
2022/08/29 08:05:58;;;;;;;20.70;5.25;;;;;;;22.22;51.56;101652.28;5075402;27;96766;-66
2022/08/29 08:08:28;;;;;;;15.10;5.90;;;;;;;21.51;53.33;101657.19;5067624;27;96808;-67
2022/08/29 08:10:54;;;;;;;15.32;5.47;;;;;;;21.78;53.01;101649.94;5068364;27;99388;-67
2022/08/29 08:13:21;;;;;;;10.73;4.72;;;;;;;22.00;52.29;101646.66;5067908;27;97710;-69
2022/08/29 08:15:51;;;;;;;16.65;4.97;;;;;;;22.21;51.75;101643.34;5068220;27;97300;-66
2022/08/29 08:18:21;;;;;;;11.45;4.90;;;;;;;22.25;51.60;101654.78;5063519;27;99174;-68
2022/08/29 08:20:50;;;;;;;10.30;5.40;;;;;;;22.37;51.28;101658.44;5067434;27;99569;-67
2022/08/29 08:23:20;;;;;;;15.95;5.65;;;;;;;22.71;50.33;101648.81;5075408;27;102169;-68
2022/08/29 08:25:52;;;;;;;13.63;5.13;;;;;;;22.70;50.21;101656.03;5067260;27;97858;-68
2022/08/29 08:28:21;;;;;;;15.68;4.78;;;;;;;22.79;50.30;101655.41;5070477;27;97074;-67
2022/08/29 08:30:51;;;;;;;12.18;4.80;;;;;;;22.74;50.53;101668.34;5070593;27;99056;-67
2022/08/29 08:33:18;;;;;;;15.55;5.63;;;;;;;22.65;50.52;101664.44;5068199;27;97787;-67
2022/08/29 08:35:49;;;;;;;17.48;5.45;;;;;;;22.64;50.70;101672.66;5069540;27;97346;-67
2022/08/29 08:38:16;;;;;;;13.38;4.97;;;;;;;22.76;50.66;101671.78;5069414;27;96810;-66
2022/08/29 08:40:51;;;;;;;15.32;5.03;;;;;;;22.66;50.46;101670.69;5067125;27;99039;-66
2022/08/29 08:43:26;;;;;;;11.57;4.80;;;;;;;22.76;50.47;101673.63;5073970;27;98791;-66
2022/08/29 08:45:54;;;;;;;9.95;5.00;;;;;;;22.70;50.79;101676.72;5065226;27;97579;-66
2022/08/29 08:48:27;;;;;;;12.82;4.53;;;;;;;22.65;51.11;101675.22;5069335;27;97623;-67
2022/08/29 08:51:01;;;;;;;13.82;5.13;;;;;;;22.69;51.08;101675.00;5069750;27;98916;-66
2022/08/29 08:53:34;;;;;;;19.10;5.25;;;;;;;22.78;51.04;101659.06;5069914;27;99033;-66
2022/08/29 08:56:07;;;;;;;10.20;5.07;;;;;;;22.93;50.79;101654.41;5068507;27;97159;-65
2022/08/29 08:58:52;;;;;;;15.18;5.50;;;;;;;23.34;49.81;101649.50;5073192;27;96924;-67
2022/08/29 09:01:31;;;;;;;11.65;5.32;;;;;;;23.27;49.60;101656.34;5064649;27;100563;-69
2022/08/29 09:04:18;;;;;;;15.02;4.85;;;;;;;23.23;50.09;101659.38;5067192;27;98417;-66
2022/08/29 09:07:08;;;;;;;9.90;4.53;;;;;;;23.11;50.12;101654.88;5060556;27;97655;-66
2022/08/29 09:09:47;;;;;;;9.15;4.20;;;;;;;23.01;51.20;101654.69;5060716;27;97755;-66
2022/08/29 09:12:29;;;;;;;12.65;4.85;;;;;;;23.33;50.26;101661.28;5060655;27;101087;-67
2022/08/29 09:15:09;;;;;;;13.50;5.03;;;;;;;23.70;49.08;101674.72;5066348;27;97485;-66
2022/08/29 09:17:46;;;;;;;15.75;4.93;;;;;;;23.55;49.47;101667.78;5070514;27;96961;-66
2022/08/29 09:20:21;;;;;;;21.50;5.50;;;;;;;23.71;48.90;101673.72;5063461;27;97360;-67
2022/08/29 09:23:02;;;;;;;11.07;4.20;;;;;;;23.78;49.11;101670.47;5067731;27;99359;-67
2022/08/29 09:25:35;;;;;;;11.40;4.80;;;;;;;23.59;49.37;101674.66;5063738;27;99319;-67
2022/08/29 09:28:11;;;;;;;8.88;4.30;;;;;;;23.75;49.07;101683.34;5068497;27;97508;-67
2022/08/29 09:30:45;;;;;;;8.20;4.07;;;;;;;23.15;50.13;101684.22;5064705;27;97427;-67
2022/08/29 09:33:13;;;;;;;12.00;5.18;;;;;;;23.28;50.53;101682.34;5067263;27;98868;-66
2022/08/29 09:35:51;;;;;;;10.13;4.45;;;;;;;23.28;50.41;101676.94;5065883;27;97993;-67
2022/08/29 09:38:32;;;;;;;10.70;4.70;;;;;;;23.32;50.86;101680.25;5064034;27;97334;-66
2022/08/29 09:41:01;;;;;;;9.23;4.57;;;;;;;23.53;50.51;101678.69;5069253;27;97345;-66
2022/08/29 09:43:34;;;;;;;11.57;4.25;;;;;;;23.46;50.46;101680.09;5068769;27;97764;-66
2022/08/29 09:46:19;;;;;;;9.63;4.53;;;;;;;23.52;50.14;101678.81;5067581;27;99240;-67
2022/08/29 09:48:57;;;;;;;12.18;4.28;;;;;;;23.45;50.09;101681.06;5068554;27;97810;-66
2022/08/29 09:51:30;;;;;;;10.80;5.05;;;;;;;23.55;50.05;101683.97;5065181;27;97114;-67
2022/08/29 09:54:18;;;;;;;10.40;4.95;;;;;;;23.63;49.92;101677.00;5066648;27;100118;-67
2022/08/29 09:56:56;;;;;;;10.45;4.25;;;;;;;23.89;49.76;101674.19;5062868;27;98755;-68
2022/08/29 09:59:27;;;;;;;12.55;4.40;;;;;;;23.72;50.00;101683.56;5066256;27;97343;-66
2022/08/29 10:02:21;;;;;;;13.77;4.80;;;;;;;23.58;50.33;101678.34;5063796;27;97379;-66
2022/08/29 10:04:52;;;;;;;8.60;3.95;;;;;;;23.55;50.56;101687.53;5064215;27;99016;-66
2022/08/29 10:07:22;;;;;;;14.63;4.28;;;;;;;23.52;50.47;101681.50;5063001;27;98428;-66
2022/08/29 10:10:03;;;;;;;10.65;4.30;;;;;;;23.67;50.68;101683.06;5068654;27;98037;-67
2022/08/29 10:12:49;;;;;;;8.02;4.30;;;;;;;24.48;48.76;101672.25;5066377;27;99157;-66
2022/08/29 10:15:25;;;;;;;10.65;4.28;;;;;;;24.55;48.23;101678.88;5059505;27;98932;-68
2022/08/29 10:20:52;;;;;;;9.75;4.90;;;;;;;24.75;47.94;101679.97;5064139;27;96869;-66
2022/08/29 10:23:26;;;;;;;12.32;5.28;;;;;;;24.65;47.64;101685.28;5073447;27;97145;-66
2022/08/29 10:26:04;;;;;;;10.25;4.53;;;;;;;24.44;48.51;101685.13;5068345;27;101438;-67
2022/08/29 10:28:41;;;;;;;13.68;4.78;;;;;;;24.50;48.78;101681.09;5065503;27;97662;-67
2022/08/29 10:31:17;;;;;;;7.68;4.15;;;;;;;24.60;48.46;101682.09;5069967;27;97185;-66
2022/08/29 10:34:08;;;;;;;17.27;8.95;;;;;;;24.97;47.20;101680.00;5062308;27;97269;-66
2022/08/29 10:36:40;;;;;;;9.43;4.45;;;;;;;25.00;47.12;101686.06;5064068;27;99101;-66
2022/08/29 10:39:19;;;;;;;11.00;4.60;;;;;;;24.79;47.44;101686.88;5064791;27;99361;-66
2022/08/29 10:41:56;;;;;;;8.88;4.28;;;;;;;24.64;47.92;101686.25;5065268;27;97715;-65
2022/08/29 10:44:40;;;;;;;9.55;4.22;;;;;;;25.04;47.25;101693.91;5062740;27;96891;-65
2022/08/29 10:47:24;;;;;;;9.23;5.10;;;;;;;25.09;46.81;101691.66;5063921;27;98982;-67
2022/08/29 10:50:01;;;;;;;11.45;5.07;;;;;;;25.09;47.17;101699.78;5068481;27;99101;-66
2022/08/29 10:52:33;;;;;;;;;;;;;;;25.10;47.33;101690.69;5066803;27;98520;-66
2022/08/29 10:55:10;;;;;;;9.27;4.30;;;;;;;24.98;47.69;101693.41;5061245;27;96916;-65
2022/08/29 10:57:44;;;;;;;;;;;;;;;25.02;47.55;101694.88;5064496;27;98950;-66
2022/08/29 11:00:19;;;;;;;10.38;4.40;;;;;;;25.18;47.34;101693.63;5070626;27;98822;-67
2022/08/29 11:02:52;;;;;;;7.85;4.28;;;;;;;24.76;47.93;101687.97;5067507;27;97150;-66
2022/08/29 11:05:31;;;;;;;9.00;4.20;;;;;;;24.60;48.42;101682.09;5060478;27;97451;-66
2022/08/29 11:08:19;;;;;;;12.40;5.28;;;;;;;25.33;47.23;101682.44;5065296;27;99168;-66
2022/08/29 11:10:50;;;;;;;12.90;4.57;;;;;;;24.67;47.91;101680.63;5063233;27;98739;-68
2022/08/29 11:13:22;;;;;;;9.18;4.13;;;;;;;25.07;47.74;101674.72;5065846;27;96829;-66
2022/08/29 11:16:09;;;;;;;10.77;4.47;;;;;;;25.07;47.51;101682.84;5067307;27;97405;-67
2022/08/29 11:18:42;;;;;;;8.77;4.43;;;;;;;25.10;47.69;101682.56;5066640;27;98923;-67
2022/08/29 11:21:22;;;;;;;11.20;4.80;;;;;;;25.15;47.09;101680.34;5063246;27;98877;-65
2022/08/29 11:23:50;;;;;;;11.05;4.22;;;;;;;25.12;47.31;101677.91;5074148;27;97151;-66
2022/08/29 11:26:30;;;;;;;7.82;4.20;;;;;;;25.48;46.49;101674.84;5062351;27;98459;-66
2022/08/29 11:29:03;;;;;;;13.82;4.25;;;;;;;25.70;46.38;101673.94;5065856;27;101577;-67
2022/08/29 11:31:44;;;;;;;10.63;4.07;;;;;;;25.26;47.25;101669.53;5068092;27;97777;-67
2022/08/29 11:34:30;;;;;;;9.45;4.47;;;;;;;25.63;46.54;101670.91;5064597;27;97259;-67
2022/08/29 11:37:39;;;;;;;12.73;4.47;;;;;;;25.57;46.10;101668.72;5064761;27;97518;-67